AirNav   Pilot Hours Calculator
 
 1011 users online  

5WN2 Eberle Ranch Airport
Dane, Wisconsin, USA

GOING TO DANE?


FAA INFORMATION EFFECTIVE 05 DECEMBER 2019

Location

FAA Identifier: 5WN2
Lat/Long: 43-16-06.0000N 089-29-04.0000W
43-16.100000N 089-29.066667W
43.2683333,-89.4844444
(estimated)
Elevation: 1050 ft. / 320 m (estimated)
From city: 1 mile N of DANE, WI
Time zone: UTC -6 (UTC -5 during Daylight Saving Time)
Zip code: 53529

Airport Operations

Airport use: Private use. Permission required prior to landing
Activation date: 07/2004
Control tower: no
ARTCC: CHICAGO CENTER
FSS: GREEN BAY FLIGHT SERVICE STATION
Attendance: UNATNDD
Wind indicator: yes
Segmented circle: yes

Airport Communications

WX AWOS-3 at C29 (9 nm S): 118.675 (608-833-1686)
WX ASOS at MSN (10 nm SE): PHONE 608-249-0615
WX AWOS-3 at DLL (20 nm NW): 118.325 (608-356-1071)

Nearby radio navigation aids

VOR radial/distance  VOR name  Freq  Var
MSNr316/9.7MADISON VORTAC108.6003E
DLLr141/20.9DELLS VORTAC117.0003E
LNRr093/28.4LONE ROCK VOR/DME112.8000E

 
NDB name  Hdg/Dist  Freq  Var  ID
ROCK RIVER281/33.737101WRYV .-. -.-- ...-
JUNEAU255/35.534401WUNU ..- -. ..-

Airport Services

Runway Information

Runway 11/29

Dimensions: 1900 x 100 ft. / 579 x 30 m
Surface: turf
RUNWAY 11  RUNWAY 29
Traffic pattern: leftleft
Obstructions: none17 ft. road, 600 ft. from runway

Airport Ownership and Management from official FAA records

Ownership: Privately-owned
Owner: RICH EBERLE
6354 CO HWY DM
DANE, WI 53529
Phone 608-850-4152
Manager: RICH EBERLE
6354 CO HWY DM
DANE, WI 53529
Phone 608-335-4040

Additional Remarks

FOR CD CTC CHICAGO ARTCC AT 630-906-8921.

Instrument Procedures

There are no published instrument procedures at 5WN2.

Some nearby airports with instrument procedures:

C29 - Middleton Municipal Airport - Morey Field (9 nm S)
KMSN - Dane County Regional Airport-Truax Field (10 nm SE)
91C - Sauk-Prairie Airport (12 nm W)
87Y - Blackhawk Airfield (16 nm SE)
C47 - Portage Municipal Airport (18 nm N)
KDLL - Baraboo-Wisconsin Dells Regional Airport (20 nm NW)
 
Loc | Ops | Rwys | IFR | FBO | Links
Com | Nav | Svcs | Stats | Notes
Area around 5WN2 (Eberle Ranch Airport)
 
Road maps at: MapQuest Bing Google
 
Aerial photo
No photo
 
Sectional chart

 
Airport distance calculator
Flying to Eberle Ranch Airport? Find the distance to fly.

From to 5WN2

Sunrise and sunset
Times for 09-Dec-2019
 Local
(UTC-6)
 Zulu
(UTC)
Morning civil twilight06:4712:47
Sunrise07:1913:19
Sunset16:2122:21
Evening civil twilight16:5422:54

Current date and time
Zulu (UTC)  09-Dec-2019 23:38:52
Local (UTC-6)  09-Dec-2019 17:38:52
 
METAR
KC29 
9nm S 
092315Z AUTO 29017G25KT 10SM OVC014 M01/M04 A2956 RMK AO1 T10101037
KMSN 
10nm SE 
092321Z 29011G22KT 10SM OVC015 M01/M04 A2955 RMK AO2 T10111039
KDLL 
20nm NW 
092315Z AUTO 29013G27KT 10SM OVC011 M04/M05 A2956 RMK AO2 T10411055
TAF
KMSN 
10nm SE 
092114Z 0921/1018 27011G22KT P6SM -SNRA SCT008 OVC016 FM092300 29016G29KT 6SM BR VCSH BKN010 FM100500 30014G22KT P6SM BKN018 FM100600 30014KT P6SM BKN030 FM101000 29012KT P6SM SCT050
NOTAMs
Click for the latest NOTAMs
NOTAMs are issued by the DoD/FAA and will open in a separate window not controlled by AirNav.

 

 
 

Would you like to see your business listed on this page?

 If your business provides an interesting product or service to pilots, flight crews, aircraft, or users of the Eberle Ranch Airport, you should consider listing it here.  To start the listing process, click on the button below
 
Add a business
 

Other Pages about Eberle Ranch Airport

Update a link
 
Copyright © AirNav, LLC. All rights reserved. Privacy Policy  Contact